Time;durP1;ratioP1;P1;durP2;ratioP2;P2;SDS_P1;SDS_P2;PMS_P1;PMS_P2;Temp;Humidity;BMP_temperature;BMP_pressure;BME280_temperature;BME280_humidity;BME280_pressure;Samples;Min_cycle;Max_cycle;Signal;HPM_P1;HPM_P2
2021/08/11 00:02:20;;;;;;;15.00;10.88;;;;;;;;;;5030420;28;20475;-56
2021/08/11 00:04:46;;;;;;;12.27;10.60;;;615.20;2380.80;;;;;;5030642;28;20591;-58
2021/08/11 00:07:12;;;;;;;13.43;10.63;;;615.00;2406.40;;;;;;5030498;28;20415;-58
2021/08/11 00:09:37;;;;;;;13.77;11.30;;;614.80;2406.40;;;;;;5029930;28;20049;-56
2021/08/11 00:12:04;;;;;;;13.27;11.93;;;614.80;2432.00;;;;;;5030359;28;20052;-55
2021/08/11 00:14:30;;;;;;;19.77;11.82;;;614.60;2432.00;;;;;;5030019;28;20029;-59
2021/08/11 00:16:56;;;;;;;12.75;10.80;;;614.70;2432.00;;;;;;5030323;28;20036;-57
2021/08/11 00:19:22;;;;;;;13.85;10.43;;;614.50;2432.00;;;;;;5030302;28;20033;-56
2021/08/11 00:21:48;;;;;;;12.40;10.52;;;614.40;2432.00;;;;;;5030074;28;20032;-57
2021/08/11 00:24:14;;;;;;;12.93;11.30;;;614.50;2432.00;;;;;;5030045;28;20109;-60
2021/08/11 00:26:40;;;;;;;13.98;10.98;;;614.60;2432.00;;;;;;5029854;28;20099;-57
2021/08/11 00:29:05;;;;;;;12.43;10.98;;;614.60;2432.00;;;;;;5029900;28;20406;-59
2021/08/11 00:31:31;;;;;;;12.95;10.82;;;614.60;2432.00;;;;;;5030075;28;20025;-58
2021/08/11 00:33:57;;;;;;;15.85;11.90;;;614.60;2432.00;;;;;;5029960;28;20053;-60
2021/08/11 00:36:23;;;;;;;13.38;11.38;;;614.70;2432.00;;;;;;5030133;28;20022;-58
2021/08/11 00:38:48;;;;;;;13.07;11.48;;;614.70;2432.00;;;;;;5030056;28;20036;-56
2021/08/11 00:41:15;;;;;;;12.20;11.00;;;614.60;2432.00;;;;;;5029917;28;20113;-55
2021/08/11 00:43:41;;;;;;;15.50;11.38;;;614.50;2432.00;;;;;;5029740;28;20026;-56
2021/08/11 00:46:08;;;;;;;11.52;10.32;;;614.40;2432.00;;;;;;5029643;28;20526;-56
2021/08/11 00:48:36;;;;;;;14.23;11.52;;;589.70;2432.00;;;;;;5029928;28;20033;-57
2021/08/11 00:51:02;;;;;;;15.07;11.38;;;614.50;2432.00;;;;;;5029778;28;20037;-56
2021/08/11 00:53:30;;;;;;;12.82;11.48;;;614.40;2432.00;;;;;;5029669;28;20029;-57
2021/08/11 00:55:59;;;;;;;11.30;10.18;;;589.70;2432.00;;;;;;5029780;28;20116;-57
2021/08/11 00:58:25;;;;;;;14.00;11.10;;;589.70;2432.00;;;;;;5029791;28;20030;-56
2021/08/11 01:00:53;;;;;;;15.55;12.43;;;589.60;2432.00;;;;;;5029660;28;20464;-56
2021/08/11 01:03:22;;;;;;;15.20;11.57;;;589.70;2432.00;;;;;;5029746;28;20108;-56
2021/08/11 01:05:50;;;;;;;14.10;11.43;;;614.40;2432.00;;;;;;5029755;28;20029;-56
2021/08/11 01:08:18;;;;;;;12.40;11.10;;;589.60;2432.00;;;;;;5029848;28;20460;-59
2021/08/11 01:10:45;;;;;;;13.13;11.65;;;589.70;2432.00;;;;;;5012965;28;20030;-57
2021/08/11 01:13:13;;;;;;;12.75;10.55;;;589.70;2432.00;;;;;;5033534;28;20064;-57
2021/08/11 01:15:39;;;;;;;13.77;12.38;;;589.70;2432.00;;;;;;5033601;28;20021;-56
2021/08/11 01:18:05;;;;;;;12.35;10.35;;;589.70;2432.00;;;;;;5033656;28;20086;-60
2021/08/11 01:20:36;;;;;;;14.25;10.88;;;589.60;2432.00;;;;;;5033409;28;20373;-60
2021/08/11 01:23:07;;;;;;;12.80;10.55;;;589.70;2432.00;;;;;;5033216;28;20039;-56
2021/08/11 01:25:43;;;;;;;12.57;10.55;;;589.60;2432.00;;;;;;5033276;28;20108;-60
2021/08/11 01:28:46;;;;;;;12.90;10.90;;;589.60;2432.00;;;;;;5033109;28;20057;-65
2021/08/11 01:31:17;;;;;;;13.48;11.20;;;589.70;2432.00;;;;;;5033390;28;20068;-61
2021/08/11 01:34:04;;;;;;;15.88;11.50;;;589.60;2432.00;;;;;;5033451;28;20083;-62
2021/08/11 01:36:29;;;;;;;11.68;9.70;;;589.60;2432.00;;;;;;5033249;28;20087;-71
2021/08/11 01:39:07;;;;;;;12.90;11.60;;;589.40;2432.00;;;;;;5033253;28;20025;-59
2021/08/11 01:41:35;;;;;;;12.60;11.30;;;;;;;;;;5033035;28;20033;-62
2021/08/11 01:44:04;;;;;;;11.35;10.15;;;589.50;2432.00;;;;;;5032892;28;20096;-68
2021/08/11 01:46:33;;;;;;;11.25;10.02;;;589.40;2432.00;;;;;;5032816;28;20029;-65
2021/08/11 01:49:07;;;;;;;12.75;11.45;;;589.30;2432.00;;;;;;5032993;28;20116;-59
2021/08/11 01:51:33;;;;;;;14.52;12.02;;;589.20;2432.00;;;;;;5032887;28;20551;-57
2021/08/11 01:54:01;;;;;;;13.32;11.00;;;589.40;2432.00;;;;;;5032789;28;20037;-60
2021/08/11 01:56:27;;;;;;;13.88;11.35;;;589.30;2432.00;;;;;;5032350;28;20109;-67
2021/08/11 01:58:54;;;;;;;12.65;11.40;;;589.30;2432.00;;;;;;5032965;28;20075;-62
2021/08/11 02:01:20;;;;;;;14.60;10.68;;;589.30;2432.00;;;;;;5032761;28;20025;-61
2021/08/11 02:03:47;;;;;;;16.00;10.65;;;589.20;2432.00;;;;;;5033134;28;20024;-60
2021/08/11 02:06:14;;;;;;;20.02;10.95;;;589.10;2432.00;;;;;;5032746;28;20021;-56
2021/08/11 02:08:44;;;;;;;20.75;12.15;;;589.30;2432.00;;;;;;5032658;28;20025;-72
2021/08/11 02:11:12;;;;;;;15.20;10.38;;;589.10;2432.00;;;;;;5032253;28;20491;-60
2021/08/11 02:13:39;;;;;;;12.88;10.52;;;589.20;2432.00;;;;;;5032357;28;20480;-57
2021/08/11 02:16:04;;;;;;;13.38;11.32;;;589.10;2432.00;;;;;;5032876;28;20048;-57
2021/08/11 02:18:30;;;;;;;11.88;9.60;;;589.10;2432.00;;;;;;5032144;28;20468;-56
2021/08/11 02:20:56;;;;;;;12.32;10.27;;;589.20;2432.00;;;;;;5032129;28;20113;-57
2021/08/11 02:23:22;;;;;;;10.82;9.00;;;589.10;2432.00;;;;;;5031399;28;20027;-56
2021/08/11 02:25:56;;;;;;;14.40;10.27;;;589.00;2432.00;;;;;;5032051;28;20099;-56
2021/08/11 02:28:57;;;;;;;14.10;10.45;;;589.00;2432.00;;;;;;5032124;28;20053;-56
2021/08/11 02:31:41;;;;;;;10.52;9.23;;;588.90;2432.00;;;;;;5007087;28;20064;-56
2021/08/11 02:34:24;;;;;;;13.75;10.13;;;588.90;2432.00;;;;;;5032020;28;20037;-58
2021/08/11 02:36:55;;;;;;;12.23;9.57;;;589.20;2432.00;;;;;;5031922;28;20026;-58
2021/08/11 02:39:31;;;;;;;12.35;9.23;;;588.80;2432.00;;;;;;5032115;28;20029;-56
2021/08/11 02:42:05;;;;;;;11.45;10.20;;;588.80;2432.00;;;;;;5031683;28;20468;-56
2021/08/11 02:44:41;;;;;;;14.48;9.70;;;564.10;2432.00;;;;;;5031921;28;20061;-56
2021/08/11 02:47:08;;;;;;;13.30;10.57;;;564.10;2432.00;;;;;;5031969;28;20063;-57
2021/08/11 02:49:34;;;;;;;11.07;9.68;;;588.80;2432.00;;;;;;5031823;28;20065;-55
2021/08/11 02:52:01;;;;;;;11.30;9.38;;;588.80;2432.00;;;;;;5031336;28;20029;-58
2021/08/11 02:54:29;;;;;;;11.85;9.10;;;589.10;2432.00;;;;;;5031699;28;20036;-57
2021/08/11 02:56:55;;;;;;;11.63;8.73;;;589.10;2432.00;;;;;;5031604;28;20053;-56
2021/08/11 02:59:24;;;;;;;10.93;8.18;;;589.20;2432.00;;;;;;5031531;28;20491;-57
2021/08/11 03:01:52;;;;;;;11.20;8.20;;;589.20;2432.00;;;;;;5031446;28;20028;-59
2021/08/11 03:04:18;;;;;;;12.25;8.23;;;589.10;2432.00;;;;;;5031751;28;20083;-56
2021/08/11 03:06:44;;;;;;;11.20;8.70;;;589.00;2432.00;;;;;;5031628;28;20025;-56
2021/08/11 03:09:10;;;;;;;9.75;7.97;;;589.10;2432.00;;;;;;5031289;28;20119;-63
2021/08/11 03:11:37;;;;;;;14.25;8.52;;;589.10;2432.00;;;;;;5031291;28;20488;-59
2021/08/11 03:14:05;;;;;;;17.13;9.32;;;589.10;2432.00;;;;;;5031442;28;20018;-56
2021/08/11 03:16:31;;;;;;;8.90;8.00;;;589.20;2432.00;;;;;;5031059;28;20029;-57
2021/08/11 03:18:57;;;;;;;10.48;8.02;;;589.30;2432.00;;;;;;5030989;28;20101;-57
2021/08/11 03:21:23;;;;;;;11.38;7.93;;;589.30;2432.00;;;;;;5031188;28;20036;-57
2021/08/11 03:23:49;;;;;;;8.55;7.65;;;589.40;2432.00;;;;;;5031077;28;20033;-64
2021/08/11 03:26:14;;;;;;;15.85;8.38;;;589.40;2432.00;;;;;;5031339;28;20033;-61
2021/08/11 03:28:40;;;;;;;10.48;7.43;;;589.50;2432.00;;;;;;5030699;28;20377;-56
2021/08/11 03:31:06;;;;;;;11.75;8.30;;;589.60;2432.00;;;;;;5030958;28;20038;-56
2021/08/11 03:33:32;;;;;;;8.55;7.00;;;589.60;2432.00;;;;;;5030966;28;20025;-55
2021/08/11 03:35:58;;;;;;;13.32;7.40;;;589.50;2432.00;;;;;;5030633;28;20033;-56
2021/08/11 03:38:23;;;;;;;9.93;8.85;;;589.50;2432.00;;;;;;5030873;28;20026;-59
2021/08/11 03:40:49;;;;;;;13.32;9.40;;;589.60;2432.00;;;;;;5030529;28;20022;-58
2021/08/11 03:43:15;;;;;;;12.80;9.77;;;589.40;2432.00;;;;;;5030986;28;20082;-56
2021/08/11 03:45:42;;;;;;;13.25;8.77;;;589.40;2432.00;;;;;;5030653;28;20380;-63
2021/08/11 03:48:08;;;;;;;9.02;8.13;;;589.40;2432.00;;;;;;5030395;28;20021;-64
2021/08/11 03:50:34;;;;;;;12.43;8.40;;;589.60;2432.00;;;;;;5030642;28;20037;-60
2021/08/11 03:53:00;;;;;;;11.05;8.88;;;589.60;2432.00;;;;;;5030329;28;20387;-62
2021/08/11 03:55:31;;;;;;;13.13;9.02;;;589.60;2432.00;;;;;;5030643;28;20035;-55
2021/08/11 03:57:57;;;;;;;14.93;9.18;;;589.60;2432.00;;;;;;5027372;28;20490;-57
2021/08/11 04:00:23;;;;;;;14.63;9.85;;;589.60;2432.00;;;;;;5030608;28;20021;-56
2021/08/11 04:02:48;;;;;;;10.88;8.93;;;589.50;2432.00;;;;;;5030542;28;20109;-59
2021/08/11 04:05:14;;;;;;;9.57;8.13;;;589.40;2432.00;;;;;;5030626;28;20480;-56
2021/08/11 04:07:40;;;;;;;10.45;8.57;;;589.40;2432.00;;;;;;5030429;28;20083;-57
2021/08/11 04:10:08;;;;;;;12.43;8.90;;;589.40;2432.00;;;;;;5030142;28;20511;-57
2021/08/11 04:12:34;;;;;;;11.73;9.13;;;589.50;2432.00;;;;;;5030176;28;20026;-55
2021/08/11 04:15:00;;;;;;;10.52;8.82;;;589.60;2432.00;;;;;;5030147;28;20036;-56
2021/08/11 04:17:26;;;;;;;10.30;8.32;;;589.70;2432.00;;;;;;5030207;28;20025;-56
2021/08/11 04:19:51;;;;;;;9.93;8.93;;;589.60;2432.00;;;;;;4995694;28;20056;-58
2021/08/11 04:22:18;;;;;;;12.13;9.13;;;614.50;2432.00;;;;;;5029962;28;20029;-56
2021/08/11 04:24:44;;;;;;;11.68;8.35;;;614.50;2432.00;;;;;;5030404;28;20041;-56
2021/08/11 04:27:09;;;;;;;12.75;8.70;;;614.70;2432.00;;;;;;5029685;28;20788;-60
2021/08/11 04:29:35;;;;;;;10.52;8.80;;;615.10;2432.00;;;;;;5030313;28;20040;-60
2021/08/11 04:32:01;;;;;;;11.85;9.35;;;615.10;2432.00;;;;;;5029920;28;20072;-55
2021/08/11 04:34:27;;;;;;;10.52;8.45;;;615.10;2432.00;;;;;;5029728;28;20539;-56
2021/08/11 04:36:52;;;;;;;10.30;8.73;;;615.20;2432.00;;;;;;5030189;28;20032;-57
2021/08/11 04:39:18;;;;;;;12.48;9.38;;;615.20;2432.00;;;;;;5030115;28;20017;-58
2021/08/11 04:41:44;;;;;;;13.05;8.57;;;615.10;2432.00;;;;;;5030081;28;20029;-56
2021/08/11 04:44:11;;;;;;;12.18;9.27;;;615.00;2432.00;;;;;;5029842;28;20032;-58
2021/08/11 04:46:41;;;;;;;10.10;8.15;;;615.20;2432.00;;;;;;5035108;28;20029;-57
2021/08/11 04:49:07;;;;;;;10.13;7.68;;;640.20;2432.00;;;;;;5031028;28;20034;-56
2021/08/11 04:51:33;;;;;;;9.32;7.47;;;640.60;2432.00;;;;;;5016763;28;20062;-58
2021/08/11 04:53:59;;;;;;;11.98;8.43;;;640.80;2432.00;;;;;;5016480;28;20104;-60
2021/08/11 04:56:25;;;;;;;12.13;9.27;;;665.70;2432.00;;;;;;5016733;28;20108;-55
2021/08/11 04:58:51;;;;;;;10.57;7.88;;;691.60;2304.00;;;;;;5016710;28;20053;-58
2021/08/11 05:01:17;;;;;;;12.30;7.68;;;691.30;2329.60;;;;;;5016495;28;20025;-56
2021/08/11 05:03:43;;;;;;;11.25;8.02;;;691.50;2329.60;;;;;;5016761;28;20033;-56
2021/08/11 05:06:10;;;;;;;10.23;7.00;;;691.50;2304.00;;;;;;5016356;28;20026;-56
2021/08/11 05:08:39;;;;;;;8.90;6.88;;;691.40;2278.40;;;;;;5001475;28;20060;-58
2021/08/11 05:11:04;;;;;;;7.95;7.15;;;691.20;2278.40;;;;;;5016567;28;20034;-64
2021/08/11 05:13:30;;;;;;;13.48;7.70;;;691.60;2252.80;;;;;;5016290;28;20120;-62
2021/08/11 05:15:57;;;;;;;12.93;8.88;;;691.60;2252.80;;;;;;5016620;28;20105;-56
2021/08/11 05:18:23;;;;;;;8.45;7.53;;;742.70;2176.00;;;;;;5016449;28;20026;-58
2021/08/11 05:20:49;;;;;;;9.40;8.40;;;793.70;2022.40;;;;;;5016502;28;20093;-71
2021/08/11 05:23:15;;;;;;;8.93;7.90;;;819.30;1920.00;;;;;;5016469;28;20033;-68
2021/08/11 05:25:45;;;;;;;10.00;8.30;;;845.50;1817.60;;;;;;5016154;28;20099;-68
2021/08/11 05:28:11;;;;;;;11.65;8.63;;;870.70;1715.20;;;;;;5016024;28;20045;-70
2021/08/11 05:30:40;;;;;;;8.52;7.70;;;896.30;1612.80;;;;;;4998592;28;20361;-62
2021/08/11 05:33:06;;;;;;;9.77;8.68;;;871.30;1587.20;;;;;;5016338;28;20048;-68
2021/08/11 05:35:32;;;;;;;9.82;8.55;;;871.30;1561.60;;;;;;5016382;28;20034;-70
2021/08/11 05:37:58;;;;;;;12.45;7.55;;;896.00;1561.60;;;;;;5016218;28;20026;-61
2021/08/11 05:40:24;;;;;;;10.65;8.55;;;845.50;1664.00;;;;;;5016270;28;20032;-54
2021/08/11 05:42:49;;;;;;;11.13;7.88;;;870.70;1612.80;;;;;;5016274;28;20483;-73
2021/08/11 05:45:15;;;;;;;11.88;7.50;;;845.40;1664.00;;;;;;5016403;28;20029;-61
2021/08/11 05:47:42;;;;;;;11.13;9.35;;;820.10;1689.60;;;;;;5016123;28;20028;-55
2021/08/11 05:50:08;;;;;;;12.48;9.15;;;845.30;1664.00;;;;;;4998184;28;20049;-55
2021/08/11 05:52:34;;;;;;;13.27;9.77;;;871.30;1561.60;;;;;;5015999;28;20057;-55
2021/08/11 05:54:59;;;;;;;16.40;9.80;;;896.50;1510.40;;;;;;5015956;28;20061;-56
2021/08/11 05:57:25;;;;;;;11.57;9.52;;;922.00;1459.20;;;;;;5013283;28;20030;-62
2021/08/11 05:59:51;;;;;;;8.70;7.90;;;947.20;1433.60;;;;;;5012977;28;20026;-58
2021/08/11 06:02:17;;;;;;;12.85;7.60;;;896.50;1510.40;;;;;;5012915;28;20025;-56
2021/08/11 06:04:42;;;;;;;11.07;7.65;;;845.70;1612.80;;;;;;5013055;28;20080;-55
2021/08/11 06:07:08;;;;;;;14.82;7.70;;;819.70;1638.40;;;;;;5012658;28;20484;-55
2021/08/11 06:09:34;;;;;;;15.65;7.13;;;794.20;1715.20;;;;;;4998342;28;20042;-54
2021/08/11 06:12:00;;;;;;;8.38;7.15;;;793.60;1740.80;;;;;;5032451;28;20029;-56
2021/08/11 06:14:25;;;;;;;9.38;7.35;;;768.80;1740.80;;;;;;5032580;28;20029;-58
2021/08/11 06:16:51;;;;;;;7.10;6.30;;;768.50;1766.40;;;;;;5032294;28;20018;-55
2021/08/11 06:19:17;;;;;;;8.52;7.10;;;768.60;1766.40;;;;;;5032341;28;20025;-56
2021/08/11 06:21:43;;;;;;;9.00;7.45;;;768.80;1766.40;;;;;;5032251;28;20476;-55
2021/08/11 06:24:08;;;;;;;14.18;7.38;;;794.00;1766.40;;;;;;5032156;28;20349;-56
2021/08/11 06:26:35;;;;;;;12.60;8.38;;;819.50;1689.60;;;;;;5032162;28;20036;-60
2021/08/11 06:29:02;;;;;;;10.32;7.93;;;819.80;1689.60;;;;;;5031831;28;20464;-56
2021/08/11 06:31:28;;;;;;;12.30;11.10;;;870.50;1612.80;;;;;;5032015;28;20104;-56
2021/08/11 06:33:54;;;;;;;11.07;10.07;;;947.30;1408.00;;;;;;5032242;28;20033;-55
2021/08/11 06:36:20;;;;;;;12.20;10.98;;;998.40;1331.20;;;;;;5031954;28;20072;-56
2021/08/11 06:38:47;;;;;;;13.05;9.40;;;1024.30;1254.40;;;;;;5032153;28;20080;-55
2021/08/11 06:41:16;;;;;;;12.23;11.18;;;1049.60;1203.20;;;;;;5032131;28;20032;-56
2021/08/11 06:43:44;;;;;;;14.98;12.30;;;1075.40;1126.40;;;;;;5031901;28;20030;-56
2021/08/11 06:46:10;;;;;;;12.75;11.55;;;1076.10;1075.20;;;;;;5031775;28;20491;-56
2021/08/11 06:48:37;;;;;;;13.25;12.02;;;1100.90;1075.20;;;;;;5031794;28;20494;-55
2021/08/11 06:51:03;;;;;;;13.30;12.18;;;1126.40;1049.60;;;;;;5031596;28;20037;-57
2021/08/11 06:53:29;;;;;;;13.25;12.18;;;1126.80;1024.00;;;;;;5031515;28;20087;-56
2021/08/11 06:55:55;;;;;;;15.32;13.90;;;1127.30;998.40;;;;;;5031843;28;20033;-55
2021/08/11 06:58:20;;;;;;;14.40;12.95;;;1152.00;972.80;;;;;;5031459;28;20029;-57
2021/08/11 07:00:46;;;;;;;14.95;13.60;;;1126.80;1024.00;;;;;;5031812;28;20029;-57
2021/08/11 07:03:12;;;;;;;14.60;13.38;;;1152.40;972.80;;;;;;5031605;28;20030;-57
2021/08/11 07:05:37;;;;;;;14.10;13.05;;;1152.00;972.80;;;;;;5031343;28;20033;-57
2021/08/11 07:08:03;;;;;;;14.52;13.32;;;1152.70;921.60;;;;;;5031408;28;20052;-56
2021/08/11 07:10:29;;;;;;;16.13;13.07;;;1178.10;870.40;;;;;;5031081;28;20067;-57
2021/08/11 07:12:55;;;;;;;14.45;13.25;;;1178.50;870.40;;;;;;5031420;28;20082;-57
2021/08/11 07:15:20;;;;;;;15.15;14.00;;;1177.80;896.00;;;;;;5031399;28;20069;-55
2021/08/11 07:17:51;;;;;;;15.38;14.25;;;1203.20;896.00;;;;;;5031441;28;20079;-56
2021/08/11 07:20:17;;;;;;;16.58;14.48;;;1178.50;870.40;;;;;;5031263;28;20053;-56
2021/08/11 07:22:43;;;;;;;15.20;13.90;;;1203.70;844.80;;;;;;5031352;28;20034;-56
2021/08/11 07:25:09;;;;;;;13.93;12.57;;;1203.80;844.80;;;;;;5030853;28;20052;-57
2021/08/11 07:27:35;;;;;;;15.05;13.80;;;1204.10;819.20;;;;;;5031079;28;20103;-56
2021/08/11 07:30:01;;;;;;;14.43;13.35;;;1203.40;819.20;;;;;;5030840;28;20037;-56
2021/08/11 07:32:27;;;;;;;15.00;13.88;;;1229.40;793.60;;;;;;5030947;28;20030;-56
2021/08/11 07:34:52;;;;;;;13.38;12.07;;;1229.50;768.00;;;;;;5030962;28;20036;-56
2021/08/11 07:37:18;;;;;;;15.52;14.20;;;1229.00;793.60;;;;;;5030848;28;20017;-57
2021/08/11 07:39:45;;;;;;;14.43;13.27;;;1254.50;793.60;;;;;;5031123;28;20072;-61
2021/08/11 07:42:11;;;;;;;15.55;14.18;;;1203.40;768.00;;;;;;5012973;28;20038;-56
2021/08/11 07:44:37;;;;;;;14.68;13.43;;;1228.90;768.00;;;;;;5030689;28;20113;-75
2021/08/11 07:47:03;;;;;;;12.02;10.93;;;1203.40;768.00;;;;;;5030801;28;20471;-55
2021/08/11 07:49:28;;;;;;;9.93;8.93;;;1178.20;768.00;;;;;;5030336;28;20083;-55
2021/08/11 07:51:54;;;;;;;10.18;8.68;;;1152.50;793.60;;;;;;5030604;28;20025;-56
2021/08/11 07:54:20;;;;;;;11.60;10.35;;;1127.30;819.20;;;;;;5030476;28;20040;-57
2021/08/11 07:56:46;;;;;;;11.00;9.98;;;1101.10;870.40;;;;;;5030835;28;20025;-74
2021/08/11 07:59:11;;;;;;;12.45;11.48;;;1075.90;844.80;;;;;;5030298;28;20025;-56
2021/08/11 08:01:37;;;;;;;13.45;12.27;;;1101.50;844.80;;;;;;5030329;28;20071;-56
2021/08/11 08:04:03;;;;;;;12.88;11.77;;;1126.70;844.80;;;;;;5030537;28;20025;-59
2021/08/11 08:06:29;;;;;;;13.95;12.75;;;1152.70;793.60;;;;;;5030105;28;20022;-67
2021/08/11 08:08:54;;;;;;;13.57;12.60;;;1152.70;793.60;;;;;;5030263;28;20053;-56
2021/08/11 08:11:20;;;;;;;12.75;11.85;;;;;;;;;;5030187;28;20037;-56
2021/08/11 08:13:48;;;;;;;13.65;12.73;;;1228.90;768.00;;;;;;5030518;28;20028;-59
2021/08/11 08:16:14;;;;;;;13.45;12.55;;;1228.80;768.00;;;;;;5030209;28;20511;-69
2021/08/11 08:18:40;;;;;;;13.65;12.48;;;1203.40;716.80;;;;;;5029971;28;20029;-74
2021/08/11 08:21:06;;;;;;;13.27;12.20;;;1177.70;768.00;;;;;;5011594;28;20084;-73
2021/08/11 08:23:32;;;;;;;11.00;10.05;;;1203.20;742.40;;;;;;5030381;28;20028;-72
2021/08/11 08:25:58;;;;;;;11.45;10.65;;;1177.70;742.40;;;;;;5029763;28;20089;-60
2021/08/11 08:28:24;;;;;;;12.95;11.90;;;1177.70;742.40;;;;;;5029910;28;20060;-59
2021/08/11 08:30:49;;;;;;;10.57;9.70;;;1152.20;768.00;;;;;;5029801;28;20037;-70
2021/08/11 08:33:15;;;;;;;11.23;10.30;;;1126.90;793.60;;;;;;5030157;28;20076;-69
2021/08/11 08:35:42;;;;;;;15.32;10.88;;;1127.30;793.60;;;;;;5029717;28;20030;-58
2021/08/11 08:38:08;;;;;;;11.50;9.38;;;1101.70;793.60;;;;;;5029835;28;20084;-57
2021/08/11 08:40:36;;;;;;;9.70;8.23;;;1076.10;819.20;;;;;;5030128;28;20423;-56
2021/08/11 08:43:03;;;;;;;11.35;9.82;;;1050.40;844.80;;;;;;5029740;28;20029;-56
2021/08/11 08:45:29;;;;;;;11.38;8.15;;;1049.70;870.40;;;;;;5029801;28;20022;-57
2021/08/11 08:47:56;;;;;;;8.80;7.03;;;1024.70;896.00;;;;;;5029783;28;20360;-55
2021/08/11 08:50:22;;;;;;;9.30;7.30;;;998.80;896.00;;;;;;5029617;28;20030;-56
2021/08/11 08:52:50;;;;;;;8.75;6.97;;;998.80;921.60;;;;;;5029861;28;20099;-59
2021/08/11 08:55:17;;;;;;;9.35;7.15;;;998.40;921.60;;;;;;5030143;28;20037;-56
2021/08/11 08:57:44;;;;;;;9.32;6.32;;;973.30;921.60;;;;;;5029783;28;20026;-56
2021/08/11 09:00:10;;;;;;;11.02;6.95;;;948.10;896.00;;;;;;5029470;28;20034;-56
2021/08/11 09:02:40;;;;;;;8.18;6.90;;;948.00;921.60;;;;;;5029752;28;20033;-56
2021/08/11 09:05:07;;;;;;;13.20;7.00;;;948.10;921.60;;;;;;5012748;28;20099;-56
2021/08/11 09:07:33;;;;;;;9.00;7.53;;;972.90;972.80;;;;;;5029509;28;20072;-56
2021/08/11 09:10:21;;;;;;;9.00;6.97;;;973.20;972.80;;;;;;5029317;28;20502;-56
2021/08/11 09:12:50;;;;;;;8.95;6.95;;;972.90;947.20;;;;;;5029964;28;20029;-57
2021/08/11 09:15:26;;;;;;;9.70;6.93;;;948.10;921.60;;;;;;5029654;28;20065;-56
2021/08/11 09:17:52;;;;;;;9.73;6.68;;;948.10;921.60;;;;;;5029643;28;20028;-56
2021/08/11 09:20:24;;;;;;;13.10;5.93;;;948.00;896.00;;;;;;5029615;28;20104;-57
2021/08/11 09:22:51;;;;;;;8.18;6.00;;;947.90;896.00;;;;;;5029699;28;20022;-56
2021/08/11 09:25:18;;;;;;;6.22;5.47;;;947.80;896.00;;;;;;5029450;28;20041;-57
2021/08/11 09:27:45;;;;;;;12.27;5.05;;;947.80;896.00;;;;;;5029350;28;20049;-55
2021/08/11 09:30:17;;;;;;;6.35;5.70;;;947.20;844.80;;;;;;5029328;28;20041;-56
2021/08/11 09:32:50;;;;;;;6.70;6.05;;;922.50;870.40;;;;;;5032274;28;20526;-56
2021/08/11 09:35:33;;;;;;;6.43;5.60;;;947.20;896.00;;;;;;5033501;28;20052;-56
2021/08/11 09:38:01;;;;;;;9.32;5.80;;;947.20;896.00;;;;;;5032991;28;20025;-56
2021/08/11 09:40:30;;;;;;;6.55;5.78;;;922.00;896.00;;;;;;5032965;28;20037;-56
2021/08/11 09:43:11;;;;;;;10.70;5.78;;;921.90;947.20;;;;;;5033111;28;20549;-56
2021/08/11 09:45:52;;;;;;;8.93;6.18;;;922.00;921.60;;;;;;5032745;28;20120;-56
2021/08/11 09:48:19;;;;;;;7.15;6.03;;;922.00;921.60;;;;;;5032921;28;20032;-59
2021/08/11 09:51:03;;;;;;;7.70;5.60;;;921.90;896.00;;;;;;5032802;28;20037;-56
2021/08/11 09:53:29;;;;;;;9.13;6.50;;;921.70;947.20;;;;;;5032586;28;20551;-56
2021/08/11 09:56:09;;;;;;;9.23;5.88;;;896.90;921.60;;;;;;5032774;28;20113;-53
2021/08/11 09:58:41;;;;;;;6.95;5.30;;;896.40;947.20;;;;;;5032805;28;20029;-56
2021/08/11 10:01:28;;;;;;;6.95;5.68;;;896.40;947.20;;;;;;5032387;28;20037;-56
2021/08/11 10:04:04;;;;;;;8.98;6.57;;;896.70;947.20;;;;;;5032803;28;20056;-58
2021/08/11 10:06:35;;;;;;;9.02;5.60;;;921.60;998.40;;;;;;5032739;28;20104;-56
2021/08/11 10:09:16;;;;;;;6.60;5.65;;;896.80;972.80;;;;;;5031019;28;20092;-64
2021/08/11 10:11:48;;;;;;;6.63;5.65;;;921.90;972.80;;;;;;5031051;28;20061;-57
2021/08/11 10:14:15;;;;;;;9.80;5.53;;;921.80;972.80;;;;;;5031121;28;20018;-57
2021/08/11 10:16:42;;;;;;;6.50;5.63;;;921.90;972.80;;;;;;5030759;28;20098;-57
2021/08/11 10:19:10;;;;;;;8.18;5.75;;;921.90;947.20;;;;;;5030764;28;20025;-56
2021/08/11 10:21:48;;;;;;;6.43;5.43;;;921.80;972.80;;;;;;5030958;28;20037;-56
2021/08/11 10:24:14;;;;;;;9.48;5.70;;;922.00;947.20;;;;;;5030644;28;20029;-56
2021/08/11 10:26:40;;;;;;;8.65;5.85;;;896.90;896.00;;;;;;5030422;28;20402;-66
2021/08/11 10:29:06;;;;;;;9.10;5.97;;;896.70;921.60;;;;;;5030550;28;20132;-57
2021/08/11 10:31:33;;;;;;;8.85;5.93;;;896.40;921.60;;;;;;5030630;28;20025;-56
2021/08/11 10:34:02;;;;;;;10.30;5.55;;;896.50;921.60;;;;;;5030393;28;20036;-55
2021/08/11 10:36:30;;;;;;;13.35;6.50;;;896.50;947.20;;;;;;5030493;28;20025;-56
2021/08/11 10:38:57;;;;;;;8.93;6.28;;;896.20;947.20;;;;;;5032298;28;20053;-56
2021/08/11 10:41:31;;;;;;;8.60;5.13;;;896.00;947.20;;;;;;5032034;28;20376;-57
2021/08/11 10:43:58;;;;;;;8.30;4.97;;;896.30;947.20;;;;;;5030957;28;20026;-57
2021/08/11 10:46:42;;;;;;;6.53;4.68;;;896.30;947.20;;;;;;5031936;28;20541;-59
2021/08/11 10:49:19;;;;;;;9.00;5.68;;;896.60;947.20;;;;;;5031669;28;20084;-56
2021/08/11 10:51:49;;;;;;;8.15;6.05;;;896.40;947.20;;;;;;5031809;28;20095;-56
2021/08/11 10:54:16;;;;;;;8.35;5.85;;;896.50;947.20;;;;;;5031724;28;20034;-56
2021/08/11 10:56:46;;;;;;;8.40;6.00;;;896.60;947.20;;;;;;5031676;28;20030;-56
2021/08/11 11:01:57;;;;;;;8.02;5.85;;;896.60;947.20;;;;;;5031904;28;20420;-56
2021/08/11 11:04:39;;;;;;;9.30;5.97;;;896.40;921.60;;;;;;5031784;28;20083;-56
2021/08/11 11:07:16;;;;;;;8.32;6.53;;;896.20;947.20;;;;;;5031560;28;20029;-56
2021/08/11 11:09:47;;;;;;;8.35;5.80;;;896.10;972.80;;;;;;5031730;28;20117;-56
2021/08/11 11:12:16;;;;;;;8.90;6.35;;;896.10;947.20;;;;;;5031473;28;20104;-56
2021/08/11 11:14:46;;;;;;;8.35;6.95;;;896.30;947.20;;;;;;5031546;28;20080;-56
2021/08/11 11:17:13;;;;;;;7.80;6.45;;;896.10;972.80;;;;;;5031165;28;20025;-53
2021/08/11 11:20:07;;;;;;;13.70;6.57;;;896.10;972.80;;;;;;5031105;28;20040;-56
2021/08/11 11:22:48;;;;;;;7.63;5.85;;;896.10;998.40;;;;;;5031040;28;20036;-56
2021/08/11 11:25:15;;;;;;;7.18;6.47;;;896.20;998.40;;;;;;5031340;28;20033;-56
2021/08/11 11:27:44;;;;;;;8.18;6.38;;;896.00;972.80;;;;;;5030810;28;20049;-55
2021/08/11 11:30:30;;;;;;;10.25;6.93;;;896.00;998.40;;;;;;5030841;28;20391;-55
2021/08/11 11:33:18;;;;;;;8.98;6.57;;;896.10;998.40;;;;;;5031171;28;20438;-57
2021/08/11 11:35:44;;;;;;;11.57;6.43;;;896.10;972.80;;;;;;5031070;28;20021;-56
2021/08/11 11:38:14;;;;;;;8.98;5.90;;;896.00;972.80;;;;;;5030717;28;20486;-56
2021/08/11 11:40:55;;;;;;;11.13;6.63;;;871.20;972.80;;;;;;5030645;28;20510;-56
2021/08/11 11:43:27;;;;;;;9.30;7.68;;;871.20;972.80;;;;;;5030579;28;20030;-56
2021/08/11 11:45:55;;;;;;;10.13;6.25;;;871.10;972.80;;;;;;5030735;28;20021;-56
2021/08/11 11:48:22;;;;;;;8.05;6.18;;;871.10;998.40;;;;;;5030710;28;20025;-56
2021/08/11 11:51:00;;;;;;;7.82;6.38;;;896.00;998.40;;;;;;5030674;28;20457;-55
2021/08/11 11:53:29;;;;;;;8.15;6.22;;;896.10;998.40;;;;;;5030705;28;20049;-56
2021/08/11 11:55:56;;;;;;;8.45;6.32;;;871.20;972.80;;;;;;5029643;28;20021;-56
2021/08/11 11:58:26;;;;;;;8.25;6.30;;;871.20;998.40;;;;;;5030560;28;20033;-56
2021/08/11 12:01:04;;;;;;;11.13;5.97;;;896.00;998.40;;;;;;5030631;28;20026;-58
2021/08/11 12:03:39;;;;;;;7.00;6.15;;;896.20;1024.00;;;;;;5030405;28;20048;-55
2021/08/11 12:06:05;;;;;;;10.00;5.53;;;896.10;972.80;;;;;;5030465;28;20026;-56
2021/08/11 12:08:32;;;;;;;8.52;6.45;;;896.00;972.80;;;;;;5028877;28;20029;-59
2021/08/11 12:11:07;;;;;;;7.22;6.53;;;896.10;1024.00;;;;;;5028441;28;20549;-57
2021/08/11 12:13:49;;;;;;;6.30;5.40;;;896.10;947.20;;;;;;5028953;28;20144;-56
2021/08/11 12:16:17;;;;;;;9.95;5.90;;;896.10;972.80;;;;;;5028887;28;20048;-55
2021/08/11 12:18:46;;;;;;;8.20;6.45;;;871.30;947.20;;;;;;5028796;28;20353;-61
2021/08/11 12:21:14;;;;;;;6.70;6.00;;;871.10;947.20;;;;;;5028442;28;20040;-56